Time;durP1;ratioP1;P1;durP2;ratioP2;P2;SDS_P1;SDS_P2;PMS_P1;PMS_P2;Temp;Humidity;BMP_temperature;BMP_pressure;BME280_temperature;BME280_humidity;BME280_pressure;Samples;Min_cycle;Max_cycle;Signal;HPM_P1;HPM_P2
2020/12/21 00:01:12;;;;;;;0.30;0.30;;;;;;;;;;5033091;28;20503;-77
2020/12/21 00:03:38;;;;;;;0.30;0.30;;;;;;;;;;5001579;28;20397;-77
2020/12/21 00:06:06;;;;;;;0.40;0.30;;;;;;;;;;5018113;28;20036;-78
2020/12/21 00:08:32;;;;;;;0.75;0.50;;;;;;;;;;5001009;28;20036;-77
2020/12/21 00:10:57;;;;;;;0.20;0.20;;;;;;;;;;4982128;28;20124;-77
2020/12/21 00:13:24;;;;;;;0.20;0.20;;;;;;;;;;4996883;28;20053;-77
2020/12/21 00:15:50;;;;;;;0.20;0.20;;;;;;;;;;4996688;28;20371;-77
2020/12/21 00:18:15;;;;;;;0.20;0.20;;;;;;;;;;4982291;28;20057;-77
2020/12/21 00:20:40;;;;;;;0.30;0.30;;;;;;;;;;4981487;28;20038;-77
2020/12/21 00:23:05;;;;;;;0.20;0.20;;;;;;;;;;4998300;28;20073;-77
2020/12/21 00:25:30;;;;;;;0.20;0.20;;;;;;;;;;5001216;28;20757;-77
2020/12/21 00:27:56;;;;;;;0.20;0.20;;;;;;;;;;5017316;28;20040;-77
2020/12/21 00:30:21;;;;;;;0.32;0.30;;;;;;;;;;4997967;28;20037;-77
2020/12/21 00:32:46;;;;;;;0.22;0.22;;;;;;;;;;4997231;28;20030;-77
2020/12/21 00:35:12;;;;;;;0.20;0.20;;;;;;;;;;4998443;28;20375;-77
2020/12/21 00:37:37;;;;;;;0.38;0.30;;;;;;;;;;5014877;28;20072;-77
2020/12/21 00:40:03;;;;;;;0.32;0.20;;;;;;;;;;4998805;28;20022;-77
2020/12/21 00:42:28;;;;;;;0.40;0.30;;;;;;;;;;4998300;28;20026;-77
2020/12/21 00:44:53;;;;;;;0.20;0.20;;;;;;;;;;4981673;28;20038;-77
2020/12/21 00:47:18;;;;;;;0.30;0.30;;;;;;;;;;5000705;28;20037;-77
2020/12/21 00:49:43;;;;;;;0.30;0.30;;;;;;;;;;5000696;28;20260;-76
2020/12/21 00:52:09;;;;;;;0.20;0.20;;;;;;;;;;5016736;28;20476;-77
2020/12/21 00:54:34;;;;;;;0.20;0.20;;;;;;;;;;5000746;28;20043;-77
2020/12/21 00:56:59;;;;;;;0.30;0.30;;;;;;;;;;5001969;28;20038;-76
2020/12/21 00:59:24;;;;;;;0.20;0.20;;;;;;;;;;5019791;28;20029;-77
2020/12/21 01:01:49;;;;;;;0.20;0.20;;;;;;;;;;4995094;28;20296;-77
2020/12/21 01:04:15;;;;;;;0.22;0.22;;;;;;;;;;5016713;28;20207;-76
2020/12/21 01:06:40;;;;;;;0.20;0.20;;;;;;;;;;5033109;28;20566;-77
2020/12/21 01:09:10;;;;;;;0.20;0.20;;;;;;;;;;5033428;28;20025;-77
2020/12/21 01:11:35;;;;;;;0.10;0.10;;;;;;;;;;5017331;28;20501;-77
2020/12/21 01:14:00;;;;;;;0.20;0.20;;;;;;;;;;5019800;28;20073;-77
2020/12/21 01:16:25;;;;;;;0.20;0.20;;;;;;;;;;5016571;28;20029;-77
2020/12/21 01:18:51;;;;;;;0.20;0.20;;;;;;;;;;5034373;28;20057;-77
2020/12/21 01:21:23;;;;;;;0.20;0.20;;;;;;;;;;5033528;28;20033;-78
2020/12/21 01:23:49;;;;;;;0.20;0.20;;;;;;;;;;5033420;28;20021;-78
2020/12/21 01:26:14;;;;;;;0.13;0.13;;;;;;;;;;5016395;28;20036;-79
2020/12/21 01:28:39;;;;;;;0.20;0.20;;;;;;;;;;5033337;28;20619;-77
2020/12/21 01:31:05;;;;;;;0.10;0.10;;;;;;;;;;5033721;28;20347;-77
2020/12/21 01:33:30;;;;;;;0.20;0.20;;;;;;;;;;5033671;28;20057;-77
2020/12/21 01:35:55;;;;;;;0.20;0.20;;;;;;;;;;5016744;28;20103;-77
2020/12/21 01:38:20;;;;;;;0.20;0.20;;;;;;;;;;5023726;28;20347;-76
2020/12/21 01:40:46;;;;;;;0.10;0.10;;;;;;;;;;5053022;28;20264;-77
2020/12/21 01:43:11;;;;;;;0.30;0.30;;;;;;;;;;5053038;28;20333;-77
2020/12/21 01:45:36;;;;;;;0.10;0.10;;;;;;;;;;5036424;28;20033;-76
2020/12/21 01:48:02;;;;;;;0.20;0.20;;;;;;;;;;5053508;28;20295;-76
2020/12/21 01:50:27;;;;;;;0.20;0.20;;;;;;;;;;5053202;28;20063;-76
2020/12/21 01:52:52;;;;;;;0.17;0.17;;;;;;;;;;5053289;28;20289;-76
2020/12/21 01:55:18;;;;;;;0.20;0.20;;;;;;;;;;5036546;28;20119;-76
2020/12/21 01:57:44;;;;;;;0.30;0.30;;;;;;;;;;5052946;28;20029;-76
2020/12/21 02:00:09;;;;;;;0.20;0.20;;;;;;;;;;5036129;28;20393;-77
2020/12/21 02:02:34;;;;;;;0.20;0.20;;;;;;;;;;5035641;28;20680;-77
2020/12/21 02:05:00;;;;;;;0.20;0.20;;;;;;;;;;5032677;28;20093;-77
2020/12/21 02:07:25;;;;;;;0.20;0.20;;;;;;;;;;5032112;28;20037;-77
2020/12/21 02:09:51;;;;;;;0.20;0.20;;;;;;;;;;5044168;28;20489;-77
2020/12/21 02:12:16;;;;;;;0.20;0.20;;;;;;;;;;5032660;28;20088;-76
2020/12/21 02:14:41;;;;;;;0.10;0.10;;;;;;;;;;5034752;28;20036;-76
2020/12/21 02:17:06;;;;;;;0.20;0.20;;;;;;;;;;5035292;28;20492;-77
2020/12/21 02:19:31;;;;;;;0.20;0.20;;;;;;;;;;5035562;28;20295;-77
2020/12/21 02:21:57;;;;;;;0.20;0.20;;;;;;;;;;5045581;28;20260;-78
2020/12/21 02:24:23;;;;;;;0.20;0.20;;;;;;;;;;5017895;28;20053;-77
2020/12/21 02:26:48;;;;;;;0.20;0.20;;;;;;;;;;5052813;28;20029;-77
2020/12/21 02:29:13;;;;;;;0.20;0.20;;;;;;;;;;5035756;28;20037;-78
2020/12/21 02:31:39;;;;;;;0.28;0.28;;;;;;;;;;5053153;28;20640;-77
2020/12/21 02:34:04;;;;;;;0.20;0.20;;;;;;;;;;5052128;28;20032;-77
2020/12/21 02:36:29;;;;;;;0.20;0.20;;;;;;;;;;5051743;28;20028;-77
2020/12/21 02:38:54;;;;;;;0.20;0.20;;;;;;;;;;5035686;28;20120;-77
2020/12/21 02:41:20;;;;;;;0.20;0.20;;;;;;;;;;5032560;28;20280;-77
2020/12/21 02:43:45;;;;;;;0.22;0.22;;;;;;;;;;5031105;28;20041;-77
2020/12/21 02:46:11;;;;;;;0.20;0.20;;;;;;;;;;5030936;28;20442;-77
2020/12/21 02:48:36;;;;;;;0.45;0.40;;;;;;;;;;5052466;28;20032;-77
2020/12/21 02:51:01;;;;;;;0.20;0.20;;;;;;;;;;5031710;28;20022;-77
2020/12/21 02:53:27;;;;;;;0.20;0.20;;;;;;;;;;5044618;28;20756;-77
2020/12/21 02:55:52;;;;;;;0.30;0.30;;;;;;;;;;5054399;28;20121;-77
2020/12/21 02:58:18;;;;;;;0.30;0.30;;;;;;;;;;5056052;28;20376;-78
2020/12/21 03:00:43;;;;;;;0.43;0.30;;;;;;;;;;5051624;28;20049;-77
2020/12/21 03:03:08;;;;;;;0.20;0.20;;;;;;;;;;5018485;28;20383;-76
2020/12/21 03:05:34;;;;;;;0.20;0.20;;;;;;;;;;5035925;28;20072;-78
2020/12/21 03:07:59;;;;;;;0.25;0.25;;;;;;;;;;5020218;28;20038;-78
2020/12/21 03:10:26;;;;;;;0.20;0.20;;;;;;;;;;5035826;28;20390;-78
2020/12/21 03:12:51;;;;;;;0.20;0.20;;;;;;;;;;5046451;28;20037;-78
2020/12/21 03:15:17;;;;;;;0.20;0.20;;;;;;;;;;5055781;28;20458;-78
2020/12/21 03:17:42;;;;;;;0.20;0.20;;;;;;;;;;5047627;28;20116;-77
2020/12/21 03:20:07;;;;;;;0.20;0.20;;;;;;;;;;5020838;28;20261;-77
2020/12/21 03:22:33;;;;;;;0.20;0.20;;;;;;;;;;5018841;28;20024;-77
2020/12/21 03:25:00;;;;;;;0.30;0.28;;;;;;;;;;5056096;28;20083;-79
2020/12/21 03:27:25;;;;;;;0.20;0.20;;;;;;;;;;5033226;28;20032;-78
2020/12/21 03:29:50;;;;;;;0.37;0.30;;;;;;;;;;5034906;28;20108;-78
2020/12/21 03:32:16;;;;;;;0.20;0.20;;;;;;;;;;5037219;28;20268;-78
2020/12/21 03:34:41;;;;;;;0.28;0.20;;;;;;;;;;5019667;28;20037;-78
2020/12/21 03:37:07;;;;;;;0.20;0.20;;;;;;;;;;5040147;28;20025;-78
2020/12/21 03:39:32;;;;;;;0.20;0.20;;;;;;;;;;5038815;28;20025;-77
2020/12/21 03:41:58;;;;;;;0.20;0.20;;;;;;;;;;5055649;28;20417;-74
2020/12/21 03:44:23;;;;;;;0.30;0.30;;;;;;;;;;5056958;28;20481;-74
2020/12/21 03:46:49;;;;;;;0.28;0.28;;;;;;;;;;5057202;28;20083;-76
2020/12/21 03:49:14;;;;;;;0.20;0.20;;;;;;;;;;5051403;28;20890;-75
2020/12/21 03:51:40;;;;;;;0.30;0.30;;;;;;;;;;5048594;28;20033;-76
2020/12/21 03:54:06;;;;;;;0.30;0.30;;;;;;;;;;5056574;28;20036;-76
2020/12/21 03:56:31;;;;;;;0.20;0.20;;;;;;;;;;5042371;28;20081;-75
2020/12/21 03:58:56;;;;;;;0.23;0.23;;;;;;;;;;5035081;28;20318;-74
2020/12/21 04:01:22;;;;;;;0.30;0.30;;;;;;;;;;5050449;28;20287;-74
2020/12/21 04:03:47;;;;;;;0.38;0.38;;;;;;;;;;5018590;28;20030;-75
2020/12/21 04:06:12;;;;;;;0.20;0.20;;;;;;;;;;5018605;28;20088;-74
2020/12/21 04:08:38;;;;;;;0.20;0.20;;;;;;;;;;5002816;28;20099;-74
2020/12/21 04:11:03;;;;;;;0.23;0.23;;;;;;;;;;5003468;28;20272;-74
2020/12/21 04:13:28;;;;;;;0.20;0.20;;;;;;;;;;5002448;28;20272;-74
2020/12/21 04:15:53;;;;;;;0.32;0.20;;;;;;;;;;5018918;28;20378;-74
2020/12/21 04:18:19;;;;;;;0.20;0.20;;;;;;;;;;5018714;28;20152;-75
2020/12/21 04:20:44;;;;;;;0.20;0.20;;;;;;;;;;5003701;28;20033;-74
2020/12/21 04:23:09;;;;;;;0.35;0.35;;;;;;;;;;5009383;28;20025;-74
2020/12/21 04:25:35;;;;;;;0.63;0.50;;;;;;;;;;5006297;28;20033;-73
2020/12/21 04:28:00;;;;;;;0.30;0.30;;;;;;;;;;5036203;28;20063;-76
2020/12/21 04:30:25;;;;;;;0.40;0.30;;;;;;;;;;5002401;28;20478;-75
2020/12/21 04:32:50;;;;;;;0.20;0.20;;;;;;;;;;5004405;28;20291;-75
2020/12/21 04:35:15;;;;;;;0.30;0.30;;;;;;;;;;5002372;28;20290;-75
2020/12/21 04:37:40;;;;;;;0.30;0.30;;;;;;;;;;5002364;28;20264;-74
2020/12/21 04:40:06;;;;;;;0.30;0.30;;;;;;;;;;5003911;28;20018;-74
2020/12/21 04:42:31;;;;;;;0.95;0.43;;;;;;;;;;5018299;28;20260;-74
2020/12/21 04:44:56;;;;;;;0.20;0.20;;;;;;;;;;5020212;28;20083;-74
2020/12/21 04:47:22;;;;;;;0.57;0.40;;;;;;;;;;5002733;28;20120;-74
2020/12/21 04:49:47;;;;;;;0.30;0.30;;;;;;;;;;5002390;28;20477;-74
2020/12/21 04:52:12;;;;;;;0.43;0.40;;;;;;;;;;5002961;28;20269;-74
2020/12/21 04:54:37;;;;;;;0.93;0.50;;;;;;;;;;5018335;28;20021;-74
2020/12/21 04:57:03;;;;;;;0.40;0.40;;;;;;;;;;4999400;28;20161;-74
2020/12/21 04:59:28;;;;;;;0.60;0.52;;;;;;;;;;4982983;28;20033;-75
2020/12/21 05:01:55;;;;;;;0.40;0.40;;;;;;;;;;5007130;28;20115;-75
2020/12/21 05:04:20;;;;;;;0.20;0.20;;;;;;;;;;5018366;28;20120;-75
2020/12/21 05:06:49;;;;;;;0.30;0.30;;;;;;;;;;5018474;28;20057;-74
2020/12/21 05:09:15;;;;;;;0.82;0.50;;;;;;;;;;5049134;28;20091;-74
2020/12/21 05:11:40;;;;;;;0.30;0.30;;;;;;;;;;5055001;28;20029;-74
2020/12/21 05:14:06;;;;;;;0.35;0.35;;;;;;;;;;5037624;28;20631;-74
2020/12/21 05:16:31;;;;;;;0.20;0.20;;;;;;;;;;5046035;28;20040;-75
2020/12/21 05:18:56;;;;;;;0.50;0.40;;;;;;;;;;5020733;28;20540;-75
2020/12/21 05:21:25;;;;;;;0.28;0.28;;;;;;;;;;5040267;28;20029;-75
2020/12/21 05:23:55;;;;;;;0.30;0.30;;;;;;;;;;5036499;28;20421;-75
2020/12/21 05:26:25;;;;;;;0.20;0.20;;;;;;;;;;5035676;28;20064;-75
2020/12/21 05:28:50;;;;;;;0.20;0.20;;;;;;;;;;5051011;28;20037;-75
2020/12/21 05:31:15;;;;;;;0.20;0.20;;;;;;;;;;5038923;28;20025;-75
2020/12/21 05:33:40;;;;;;;0.27;0.27;;;;;;;;;;5037859;28;20300;-75
2020/12/21 05:36:08;;;;;;;0.20;0.20;;;;;;;;;;5038394;28;20280;-74
2020/12/21 05:38:33;;;;;;;0.30;0.30;;;;;;;;;;5038398;28;20025;-75
2020/12/21 05:41:08;;;;;;;0.60;0.32;;;;;;;;;;5037884;28;20553;-74
2020/12/21 05:43:36;;;;;;;0.30;0.30;;;;;;;;;;5054579;28;20444;-74
2020/12/21 05:46:05;;;;;;;0.30;0.30;;;;;;;;;;5054100;28;20040;-74
2020/12/21 05:48:32;;;;;;;0.32;0.30;;;;;;;;;;5054363;28;20389;-74
2020/12/21 05:50:57;;;;;;;0.20;0.20;;;;;;;;;;5054214;28;20025;-74
2020/12/21 05:53:23;;;;;;;0.30;0.30;;;;;;;;;;5054064;28;20037;-75
2020/12/21 05:55:49;;;;;;;0.28;0.28;;;;;;;;;;5054371;28;20063;-74
2020/12/21 05:58:14;;;;;;;0.20;0.20;;;;;;;;;;5054271;28;20485;-75
2020/12/21 06:00:39;;;;;;;0.30;0.30;;;;;;;;;;5037943;28;20260;-74
2020/12/21 06:03:06;;;;;;;0.30;0.30;;;;;;;;;;5036815;28;20283;-74
2020/12/21 06:05:32;;;;;;;0.30;0.30;;;;;;;;;;5037405;28;20259;-74
2020/12/21 06:07:57;;;;;;;0.20;0.20;;;;;;;;;;5053113;28;20029;-74
2020/12/21 06:10:23;;;;;;;0.20;0.20;;;;;;;;;;5053540;28;20024;-75
2020/12/21 06:12:50;;;;;;;0.20;0.20;;;;;;;;;;5054220;28;20108;-75
2020/12/21 06:15:16;;;;;;;0.28;0.28;;;;;;;;;;5053313;28;20418;-74
2020/12/21 06:17:41;;;;;;;0.20;0.20;;;;;;;;;;5036821;28;20088;-76
2020/12/21 06:20:08;;;;;;;0.20;0.20;;;;;;;;;;5054864;28;20057;-74
2020/12/21 06:22:33;;;;;;;0.20;0.20;;;;;;;;;;5052980;28;20049;-75
2020/12/21 06:24:59;;;;;;;0.20;0.20;;;;;;;;;;5053714;28;20362;-74
2020/12/21 06:27:24;;;;;;;0.20;0.20;;;;;;;;;;5052263;28;20033;-75
2020/12/21 06:29:59;;;;;;;0.20;0.20;;;;;;;;;;5062335;28;20036;-74
2020/12/21 06:32:31;;;;;;;0.20;0.20;;;;;;;;;;5072729;28;20040;-76
2020/12/21 06:34:56;;;;;;;0.30;0.30;;;;;;;;;;5057321;28;20091;-75
2020/12/21 06:37:22;;;;;;;0.30;0.30;;;;;;;;;;5056793;28;20456;-74
2020/12/21 06:40:00;;;;;;;0.30;0.30;;;;;;;;;;5041384;28;20033;-74
2020/12/21 06:42:25;;;;;;;0.30;0.30;;;;;;;;;;5055560;28;20361;-74
2020/12/21 06:44:51;;;;;;;0.20;0.20;;;;;;;;;;5062605;28;20025;-75
2020/12/21 06:47:16;;;;;;;0.20;0.20;;;;;;;;;;5035124;28;20059;-75
2020/12/21 06:49:41;;;;;;;0.20;0.20;;;;;;;;;;5034637;28;20118;-74
2020/12/21 06:52:07;;;;;;;0.20;0.20;;;;;;;;;;5053306;28;20062;-74
2020/12/21 06:54:32;;;;;;;0.20;0.20;;;;;;;;;;5052402;28;20069;-75
2020/12/21 06:56:57;;;;;;;0.20;0.20;;;;;;;;;;5036942;28;20060;-75
2020/12/21 06:59:23;;;;;;;0.20;0.20;;;;;;;;;;5054972;28;20025;-74
2020/12/21 07:01:49;;;;;;;0.20;0.20;;;;;;;;;;5031857;28;20338;-75
2020/12/21 07:04:35;;;;;;;0.20;0.20;;;;;;;;;;5037180;28;20388;-75
2020/12/21 07:07:01;;;;;;;0.20;0.20;;;;;;;;;;5051607;28;20199;-76
2020/12/21 07:09:33;;;;;;;0.22;0.22;;;;;;;;;;5044493;28;20109;-76
2020/12/21 07:11:58;;;;;;;0.20;0.20;;;;;;;;;;5015838;28;20028;-76
2020/12/21 07:14:24;;;;;;;0.20;0.20;;;;;;;;;;5044218;28;20033;-75
2020/12/21 07:17:00;;;;;;;0.20;0.20;;;;;;;;;;5037439;28;20033;-75
2020/12/21 07:19:25;;;;;;;0.20;0.20;;;;;;;;;;5023685;28;20036;-76
2020/12/21 07:21:51;;;;;;;0.20;0.20;;;;;;;;;;5042718;28;20026;-76
2020/12/21 07:24:16;;;;;;;0.20;0.20;;;;;;;;;;5050125;28;20043;-76
2020/12/21 07:26:41;;;;;;;0.20;0.20;;;;;;;;;;5034762;28;20025;-76
2020/12/21 07:29:07;;;;;;;0.20;0.20;;;;;;;;;;5053206;28;20294;-75
2020/12/21 07:31:35;;;;;;;0.20;0.20;;;;;;;;;;5052464;28;20028;-74
2020/12/21 07:34:00;;;;;;;0.28;0.28;;;;;;;;;;5037331;28;20029;-76
2020/12/21 07:36:28;;;;;;;0.30;0.30;;;;;;;;;;5017081;28;20031;-75
2020/12/21 07:39:08;;;;;;;0.20;0.20;;;;;;;;;;5034165;28;20021;-77
2020/12/21 07:41:34;;;;;;;0.20;0.20;;;;;;;;;;5052790;28;20064;-76
2020/12/21 07:44:02;;;;;;;0.20;0.20;;;;;;;;;;5027262;28;20390;-74
2020/12/21 07:46:29;;;;;;;0.20;0.20;;;;;;;;;;5054902;28;20151;-74
2020/12/21 07:48:55;;;;;;;0.20;0.20;;;;;;;;;;5040178;28;20033;-73
2020/12/21 07:51:20;;;;;;;0.20;0.20;;;;;;;;;;5031083;28;20473;-76
2020/12/21 07:53:45;;;;;;;0.22;0.22;;;;;;;;;;5024723;28;20380;-76
2020/12/21 07:56:17;;;;;;;0.20;0.20;;;;;;;;;;5040355;28;20120;-78
2020/12/21 07:58:42;;;;;;;0.20;0.20;;;;;;;;;;5048168;28;20087;-76
2020/12/21 08:01:07;;;;;;;0.30;0.30;;;;;;;;;;5025222;28;20120;-74
2020/12/21 08:03:35;;;;;;;0.20;0.20;;;;;;;;;;5044272;28;20055;-73
2020/12/21 08:06:08;;;;;;;0.30;0.30;;;;;;;;;;5028631;28;20063;-74
2020/12/21 08:08:33;;;;;;;0.20;0.20;;;;;;;;;;5024628;28;20036;-75
2020/12/21 08:10:58;;;;;;;0.20;0.20;;;;;;;;;;5054859;28;20037;-76
2020/12/21 08:13:24;;;;;;;0.20;0.20;;;;;;;;;;5055452;28;20040;-74
2020/12/21 08:15:49;;;;;;;0.20;0.20;;;;;;;;;;5034776;28;20404;-75
2020/12/21 08:18:15;;;;;;;0.20;0.20;;;;;;;;;;5034684;28;20410;-75
2020/12/21 08:20:53;;;;;;;0.20;0.20;;;;;;;;;;5048773;28;20079;-75
2020/12/21 08:23:22;;;;;;;0.30;0.30;;;;;;;;;;5056572;28;20095;-75
2020/12/21 08:25:47;;;;;;;0.20;0.20;;;;;;;;;;5055160;28;20444;-75
2020/12/21 08:28:12;;;;;;;0.20;0.20;;;;;;;;;;5034945;28;20037;-74
2020/12/21 08:30:38;;;;;;;0.20;0.20;;;;;;;;;;5030881;28;20084;-75
2020/12/21 08:33:03;;;;;;;0.20;0.20;;;;;;;;;;5046651;28;20271;-75
2020/12/21 08:35:29;;;;;;;0.20;0.20;;;;;;;;;;5055040;28;20033;-75
2020/12/21 08:38:13;;;;;;;0.20;0.20;;;;;;;;;;5054513;28;20032;-75
2020/12/21 08:40:39;;;;;;;0.20;0.20;;;;;;;;;;5044966;28;20763;-75
2020/12/21 08:43:04;;;;;;;0.20;0.20;;;;;;;;;;5054694;28;20082;-74
2020/12/21 08:45:29;;;;;;;0.20;0.20;;;;;;;;;;5051332;28;20112;-74
2020/12/21 08:47:54;;;;;;;0.20;0.20;;;;;;;;;;5038673;28;20615;-75
2020/12/21 08:50:20;;;;;;;0.27;0.27;;;;;;;;;;5035198;28;20268;-74
2020/12/21 08:52:48;;;;;;;0.20;0.20;;;;;;;;;;5033709;28;20248;-75
2020/12/21 08:55:13;;;;;;;0.25;0.25;;;;;;;;;;5034773;28;20267;-75
2020/12/21 08:57:38;;;;;;;0.30;0.30;;;;;;;;;;5034787;28;20033;-74
2020/12/21 09:00:04;;;;;;;0.20;0.20;;;;;;;;;;5018039;28;20613;-74
2020/12/21 09:02:29;;;;;;;0.20;0.20;;;;;;;;;;5027208;28;20092;-74
2020/12/21 09:04:55;;;;;;;0.20;0.20;;;;;;;;;;5015969;28;20449;-74
2020/12/21 09:07:20;;;;;;;0.10;0.10;;;;;;;;;;5015525;28;20034;-74
2020/12/21 09:09:46;;;;;;;0.30;0.30;;;;;;;;;;5020938;28;20063;-74
2020/12/21 09:12:11;;;;;;;0.20;0.20;;;;;;;;;;5018080;28;20033;-75
2020/12/21 09:14:36;;;;;;;0.20;0.20;;;;;;;;;;5036045;28;20280;-74
2020/12/21 09:17:02;;;;;;;0.20;0.20;;;;;;;;;;5017872;28;20415;-74
2020/12/21 09:19:27;;;;;;;0.20;0.20;;;;;;;;;;5001664;28;20451;-74
2020/12/21 09:21:52;;;;;;;0.20;0.20;;;;;;;;;;5017961;28;20036;-74
2020/12/21 09:24:17;;;;;;;0.20;0.20;;;;;;;;;;5017973;28;20382;-75
2020/12/21 09:26:43;;;;;;;0.20;0.20;;;;;;;;;;5017612;28;20261;-75
2020/12/21 09:29:08;;;;;;;0.20;0.20;;;;;;;;;;5000968;28;20100;-75
2020/12/21 09:31:33;;;;;;;0.20;0.20;;;;;;;;;;5035028;28;20802;-75
2020/12/21 09:33:59;;;;;;;0.20;0.20;;;;;;;;;;5017476;28;20060;-75
2020/12/21 09:36:26;;;;;;;0.20;0.20;;;;;;;;;;5000927;28;20033;-75
2020/12/21 09:38:52;;;;;;;0.20;0.20;;;;;;;;;;5017662;28;20318;-75
2020/12/21 09:41:18;;;;;;;0.20;0.20;;;;;;;;;;5017504;28;20433;-75
2020/12/21 09:43:46;;;;;;;0.30;0.30;;;;;;;;;;5001193;28;20030;-75
2020/12/21 09:46:18;;;;;;;0.30;0.30;;;;;;;;;;5000875;28;20497;-75
2020/12/21 09:48:44;;;;;;;0.20;0.20;;;;;;;;;;5017842;28;20033;-75
2020/12/21 09:51:10;;;;;;;0.20;0.20;;;;;;;;;;5035128;28;20419;-75
2020/12/21 09:53:36;;;;;;;0.20;0.20;;;;;;;;;;5017836;28;20034;-75
2020/12/21 09:56:01;;;;;;;0.20;0.20;;;;;;;;;;5017300;28;20037;-74
2020/12/21 09:58:27;;;;;;;0.20;0.20;;;;;;;;;;5017653;28;20475;-74
2020/12/21 10:00:54;;;;;;;0.20;0.20;;;;;;;;;;5001369;28;20153;-74
2020/12/21 10:03:19;;;;;;;0.30;0.30;;;;;;;;;;5043272;28;20506;-74
2020/12/21 10:05:45;;;;;;;0.20;0.20;;;;;;;;;;5052969;28;20274;-74
2020/12/21 10:08:10;;;;;;;0.20;0.20;;;;;;;;;;5053055;28;20256;-74
2020/12/21 10:10:36;;;;;;;0.20;0.20;;;;;;;;;;5036447;28;20033;-74
2020/12/21 10:13:01;;;;;;;0.20;0.20;;;;;;;;;;5052950;28;20028;-75
2020/12/21 10:15:26;;;;;;;0.28;0.28;;;;;;;;;;5052969;28;20128;-74
2020/12/21 10:17:52;;;;;;;0.20;0.20;;;;;;;;;;5052770;28;20064;-74
2020/12/21 10:20:17;;;;;;;0.20;0.20;;;;;;;;;;5052544;28;20104;-75
2020/12/21 10:22:43;;;;;;;0.20;0.20;;;;;;;;;;5052703;28;20036;-74
2020/12/21 10:25:08;;;;;;;0.13;0.13;;;;;;;;;;5054017;28;20135;-74
2020/12/21 10:27:34;;;;;;;0.20;0.20;;;;;;;;;;5052757;28;20029;-74
2020/12/21 10:30:00;;;;;;;0.20;0.20;;;;;;;;;;5053890;28;20033;-74
2020/12/21 10:32:26;;;;;;;0.20;0.20;;;;;;;;;;5035969;28;20489;-74
2020/12/21 10:34:51;;;;;;;0.20;0.20;;;;;;;;;;5035970;28;20397;-74
2020/12/21 10:37:16;;;;;;;0.20;0.20;;;;;;;;;;5035728;28;20120;-74
2020/12/21 10:39:41;;;;;;;0.20;0.20;;;;;;;;;;5035249;28;20616;-74
2020/12/21 10:42:07;;;;;;;0.20;0.20;;;;;;;;;;5052194;28;20028;-74
2020/12/21 10:44:32;;;;;;;0.20;0.20;;;;;;;;;;5052485;28;20021;-74
2020/12/21 10:46:58;;;;;;;0.20;0.20;;;;;;;;;;5052400;28;20044;-74
2020/12/21 10:49:23;;;;;;;0.20;0.20;;;;;;;;;;5052324;28;20408;-75
2020/12/21 10:51:48;;;;;;;0.20;0.20;;;;;;;;;;5035498;28;20025;-74
2020/12/21 10:54:13;;;;;;;0.20;0.20;;;;;;;;;;5035588;28;20337;-74
2020/12/21 10:56:39;;;;;;;0.20;0.20;;;;;;;;;;5031985;28;20319;-74
2020/12/21 10:59:04;;;;;;;0.20;0.20;;;;;;;;;;5032430;28;20037;-74
2020/12/21 11:01:29;;;;;;;0.20;0.20;;;;;;;;;;5043035;28;20745;-75
2020/12/21 11:03:55;;;;;;;0.20;0.20;;;;;;;;;;5048369;28;20044;-75
2020/12/21 11:06:21;;;;;;;0.20;0.20;;;;;;;;;;5051978;28;20040;-75
2020/12/21 11:08:46;;;;;;;0.10;0.10;;;;;;;;;;5035300;28;20489;-75
2020/12/21 11:11:11;;;;;;;0.20;0.20;;;;;;;;;;5035282;28;20044;-75
2020/12/21 11:13:39;;;;;;;0.20;0.20;;;;;;;;;;5035390;28;20385;-75
2020/12/21 11:16:04;;;;;;;0.20;0.20;;;;;;;;;;5052819;28;20291;-75
2020/12/21 11:18:30;;;;;;;0.10;0.10;;;;;;;;;;5056853;28;20109;-75
2020/12/21 11:20:57;;;;;;;0.20;0.20;;;;;;;;;;5036618;28;20114;-75
2020/12/21 11:23:22;;;;;;;0.20;0.20;;;;;;;;;;5019719;28;20033;-75
2020/12/21 11:25:47;;;;;;;0.20;0.20;;;;;;;;;;5038980;28;20489;-75
2020/12/21 11:28:13;;;;;;;0.20;0.20;;;;;;;;;;5055653;28;20263;-75
2020/12/21 11:30:38;;;;;;;0.17;0.17;;;;;;;;;;5057290;28;20079;-75
2020/12/21 11:33:04;;;;;;;0.10;0.10;;;;;;;;;;5035712;28;20040;-75
2020/12/21 11:35:29;;;;;;;0.20;0.20;;;;;;;;;;5019167;28;20032;-75
2020/12/21 11:37:54;;;;;;;0.20;0.20;;;;;;;;;;5035534;28;20057;-75
2020/12/21 11:40:20;;;;;;;0.17;0.17;;;;;;;;;;5035823;28;20806;-75
2020/12/21 11:42:45;;;;;;;0.20;0.20;;;;;;;;;;5036727;28;20068;-75
2020/12/21 11:45:10;;;;;;;0.20;0.20;;;;;;;;;;5035528;28;20104;-75
2020/12/21 11:47:37;;;;;;;0.20;0.20;;;;;;;;;;5044066;28;20029;-75
2020/12/21 11:50:03;;;;;;;0.20;0.20;;;;;;;;;;5055365;28;20029;-75
2020/12/21 11:52:31;;;;;;;0.10;0.10;;;;;;;;;;5055353;28;20033;-75
2020/12/21 11:54:57;;;;;;;0.20;0.20;;;;;;;;;;5055331;28;20029;-75
2020/12/21 11:57:26;;;;;;;0.13;0.13;;;;;;;;;;5026838;28;20485;-75
2020/12/21 11:59:52;;;;;;;0.20;0.20;;;;;;;;;;5054930;28;20390;-75
2020/12/21 12:02:17;;;;;;;0.20;0.20;;;;;;;;;;5054167;28;20033;-75
2020/12/21 12:04:42;;;;;;;0.20;0.20;;;;;;;;;;5038300;28;20473;-75
2020/12/21 12:07:08;;;;;;;0.13;0.13;;;;;;;;;;5054913;28;20283;-75
2020/12/21 12:09:37;;;;;;;0.20;0.20;;;;;;;;;;5038191;28;20370;-75
2020/12/21 12:12:03;;;;;;;0.20;0.20;;;;;;;;;;5054626;28;20029;-75
2020/12/21 12:14:28;;;;;;;0.17;0.17;;;;;;;;;;5054573;28;20029;-75
2020/12/21 12:16:57;;;;;;;0.10;0.10;;;;;;;;;;5036172;28;20050;-75
2020/12/21 12:19:23;;;;;;;0.15;0.15;;;;;;;;;;5018371;28;20060;-75
2020/12/21 12:21:49;;;;;;;0.10;0.10;;;;;;;;;;5035848;28;20057;-75
2020/12/21 12:24:14;;;;;;;0.10;0.10;;;;;;;;;;5018753;28;20087;-75
2020/12/21 12:26:40;;;;;;;0.13;0.13;;;;;;;;;;5018109;28;20033;-75
2020/12/21 12:29:05;;;;;;;0.10;0.10;;;;;;;;;;5035857;28;20044;-75
2020/12/21 12:31:30;;;;;;;0.10;0.10;;;;;;;;;;5034870;28;20160;-75
2020/12/21 12:33:55;;;;;;;0.20;0.20;;;;;;;;;;5017888;28;20029;-75
2020/12/21 12:36:21;;;;;;;0.20;0.20;;;;;;;;;;5017798;28;20033;-75
2020/12/21 12:38:47;;;;;;;0.10;0.10;;;;;;;;;;5034421;28;20022;-75
2020/12/21 12:41:12;;;;;;;0.20;0.20;;;;;;;;;;5034549;28;20030;-75
2020/12/21 12:43:37;;;;;;;0.20;0.20;;;;;;;;;;5017596;28;20124;-75
2020/12/21 12:46:03;;;;;;;0.20;0.20;;;;;;;;;;5034393;28;20044;-75
2020/12/21 12:48:28;;;;;;;0.10;0.10;;;;;;;;;;5028973;28;20082;-75
2020/12/21 12:50:54;;;;;;;0.10;0.10;;;;;;;;;;5055760;28;20112;-76
2020/12/21 12:53:22;;;;;;;0.10;0.10;;;;;;;;;;5055724;28;20461;-76
2020/12/21 12:56:05;;;;;;;0.15;0.15;;;;;;;;;;5053423;28;20108;-77
2020/12/21 12:58:31;;;;;;;0.10;0.10;;;;;;;;;;5056615;28;20105;-77
2020/12/21 13:00:57;;;;;;;0.10;0.10;;;;;;;;;;5036770;28;20500;-78
2020/12/21 13:03:22;;;;;;;0.10;0.10;;;;;;;;;;5022948;28;20350;-75
2020/12/21 13:05:47;;;;;;;0.10;0.10;;;;;;;;;;4998213;28;20030;-75
2020/12/21 13:08:13;;;;;;;0.10;0.10;;;;;;;;;;5006796;28;20033;-76
2020/12/21 13:10:38;;;;;;;0.10;0.10;;;;;;;;;;5001363;28;20034;-75
2020/12/21 13:13:03;;;;;;;0.10;0.10;;;;;;;;;;5017659;28;20668;-75
2020/12/21 13:15:29;;;;;;;0.10;0.10;;;;;;;;;;5002599;28;20034;-75
2020/12/21 13:17:54;;;;;;;0.10;0.10;;;;;;;;;;4997515;28;20042;-75
2020/12/21 13:20:19;;;;;;;0.20;0.20;;;;;;;;;;4981321;28;20022;-75
2020/12/21 13:22:45;;;;;;;0.10;0.10;;;;;;;;;;5015005;28;20497;-75
2020/12/21 13:25:10;;;;;;;0.10;0.10;;;;;;;;;;5030896;28;20088;-75
2020/12/21 13:27:38;;;;;;;0.10;0.10;;;;;;;;;;5016864;28;20667;-75
2020/12/21 13:30:04;;;;;;;0.10;0.10;;;;;;;;;;5034469;28;20061;-75
2020/12/21 13:32:29;;;;;;;0.10;0.10;;;;;;;;;;5034452;28;20029;-75
2020/12/21 13:34:55;;;;;;;0.10;0.10;;;;;;;;;;5016790;28;20033;-75
2020/12/21 13:37:20;;;;;;;0.10;0.10;;;;;;;;;;4996981;28;20041;-75
2020/12/21 13:39:45;;;;;;;0.10;0.10;;;;;;;;;;4980302;28;20371;-75
2020/12/21 13:42:11;;;;;;;0.10;0.10;;;;;;;;;;4996916;28;20268;-75
2020/12/21 13:44:39;;;;;;;0.10;0.10;;;;;;;;;;4997096;28;20033;-75
2020/12/21 13:47:04;;;;;;;0.10;0.10;;;;;;;;;;4997451;28;20945;-75
2020/12/21 13:49:29;;;;;;;0.20;0.20;;;;;;;;;;4997292;28;20124;-75
2020/12/21 13:51:54;;;;;;;0.20;0.20;;;;;;;;;;4992211;28;20291;-75
2020/12/21 13:54:23;;;;;;;0.20;0.20;;;;;;;;;;5008765;28;20112;-75
2020/12/21 13:56:48;;;;;;;0.10;0.10;;;;;;;;;;5003324;28;20087;-75
2020/12/21 13:59:14;;;;;;;0.10;0.10;;;;;;;;;;5008537;28;20046;-75
2020/12/21 14:01:39;;;;;;;0.20;0.20;;;;;;;;;;4996841;28;20261;-76
2020/12/21 14:04:05;;;;;;;0.20;0.20;;;;;;;;;;5029641;28;20045;-73
2020/12/21 14:06:30;;;;;;;0.10;0.10;;;;;;;;;;5032883;28;20040;-74
2020/12/21 14:08:55;;;;;;;0.20;0.20;;;;;;;;;;5016388;28;20267;-73
2020/12/21 14:11:20;;;;;;;0.10;0.10;;;;;;;;;;5021518;28;20040;-73
2020/12/21 14:13:52;;;;;;;0.10;0.10;;;;;;;;;;5016302;28;20276;-74
2020/12/21 14:16:17;;;;;;;0.17;0.17;;;;;;;;;;5032752;28;20367;-73
2020/12/21 14:18:43;;;;;;;0.10;0.10;;;;;;;;;;5032760;28;20033;-74
2020/12/21 14:21:09;;;;;;;0.13;0.13;;;;;;;;;;5016044;28;20103;-72
2020/12/21 14:23:34;;;;;;;0.20;0.20;;;;;;;;;;5016344;28;20041;-73
2020/12/21 14:25:59;;;;;;;0.10;0.10;;;;;;;;;;5033714;28;20025;-73
2020/12/21 14:28:24;;;;;;;0.10;0.10;;;;;;;;;;5032681;28;20453;-73
2020/12/21 14:30:50;;;;;;;0.10;0.10;;;;;;;;;;5032838;28;20268;-73
2020/12/21 14:33:16;;;;;;;0.10;0.10;;;;;;;;;;5033729;28;20121;-73
2020/12/21 14:35:44;;;;;;;0.10;0.10;;;;;;;;;;5048957;28;20155;-73